sensor_id;sensor_type;location;lat;lon;timestamp;temperature;humidity
17948;DHT22;9099;47.958;11.366;2023-02-11T00:00:55;-1.10;99.90
17948;DHT22;9099;47.958;11.366;2023-02-11T00:03:21;-1.10;99.90
17948;DHT22;9099;47.958;11.366;2023-02-11T00:05:56;-1.20;99.90
17948;DHT22;9099;47.958;11.366;2023-02-11T00:14:02;-1.20;99.90
17948;DHT22;9099;47.958;11.366;2023-02-11T00:16:29;-1.20;99.90
17948;DHT22;9099;47.958;11.366;2023-02-11T00:18:58;-1.20;99.90
17948;DHT22;9099;47.958;11.366;2023-02-11T00:21:25;-1.20;99.90
17948;DHT22;9099;47.958;11.366;2023-02-11T00:23:53;-1.20;99.90
17948;DHT22;9099;47.958;11.366;2023-02-11T00:26:23;-1.20;99.90
17948;DHT22;9099;47.958;11.366;2023-02-11T00:28:51;-1.20;99.90
17948;DHT22;9099;47.958;11.366;2023-02-11T00:31:21;-1.20;99.90
17948;DHT22;9099;47.958;11.366;2023-02-11T00:33:48;-1.20;99.90
17948;DHT22;9099;47.958;11.366;2023-02-11T00:36:17;-1.30;99.90
17948;DHT22;9099;47.958;11.366;2023-02-11T00:38:44;-1.30;99.90
17948;DHT22;9099;47.958;11.366;2023-02-11T00:41:12;-1.30;99.90
17948;DHT22;9099;47.958;11.366;2023-02-11T00:43:40;-1.40;99.90
17948;DHT22;9099;47.958;11.366;2023-02-11T00:46:07;-1.30;99.90
17948;DHT22;9099;47.958;11.366;2023-02-11T00:48:36;-1.30;99.90
17948;DHT22;9099;47.958;11.366;2023-02-11T00:51:03;-1.40;99.90
17948;DHT22;9099;47.958;11.366;2023-02-11T00:53:31;-1.40;99.90
17948;DHT22;9099;47.958;11.366;2023-02-11T00:55:58;-1.50;99.90
17948;DHT22;9099;47.958;11.366;2023-02-11T00:58:25;-1.50;99.90
17948;DHT22;9099;47.958;11.366;2023-02-11T01:00:53;-1.40;99.90
17948;DHT22;9099;47.958;11.366;2023-02-11T01:03:21;-1.40;99.90
17948;DHT22;9099;47.958;11.366;2023-02-11T01:05:49;-1.50;99.90
17948;DHT22;9099;47.958;11.366;2023-02-11T01:08:16;-1.40;99.90
17948;DHT22;9099;47.958;11.366;2023-02-11T01:10:43;-1.40;99.90
17948;DHT22;9099;47.958;11.366;2023-02-11T01:13:10;-1.40;99.90
17948;DHT22;9099;47.958;11.366;2023-02-11T01:15:37;-1.50;99.90
17948;DHT22;9099;47.958;11.366;2023-02-11T01:18:04;-1.50;99.90
17948;DHT22;9099;47.958;11.366;2023-02-11T01:20:31;-1.50;99.90
17948;DHT22;9099;47.958;11.366;2023-02-11T01:22:59;-1.50;99.90
17948;DHT22;9099;47.958;11.366;2023-02-11T01:25:26;-1.50;99.90
17948;DHT22;9099;47.958;11.366;2023-02-11T01:27:53;-1.60;99.90
17948;DHT22;9099;47.958;11.366;2023-02-11T01:30:20;-1.60;99.90
17948;DHT22;9099;47.958;11.366;2023-02-11T01:32:47;-1.70;99.90
17948;DHT22;9099;47.958;11.366;2023-02-11T01:35:13;-1.60;99.90
17948;DHT22;9099;47.958;11.366;2023-02-11T01:37:41;-1.60;99.90
17948;DHT22;9099;47.958;11.366;2023-02-11T01:40:12;-1.60;99.90
17948;DHT22;9099;47.958;11.366;2023-02-11T01:42:39;-1.60;99.90
17948;DHT22;9099;47.958;11.366;2023-02-11T01:45:41;-1.70;99.90
17948;DHT22;9099;47.958;11.366;2023-02-11T01:48:16;-1.80;99.90
17948;DHT22;9099;47.958;11.366;2023-02-11T01:50:47;-1.80;99.90
17948;DHT22;9099;47.958;11.366;2023-02-11T01:53:16;-1.80;99.90
17948;DHT22;9099;47.958;11.366;2023-02-11T01:56:02;-1.80;99.90
17948;DHT22;9099;47.958;11.366;2023-02-11T01:58:48;-1.80;99.90
17948;DHT22;9099;47.958;11.366;2023-02-11T02:01:19;-1.90;99.90
17948;DHT22;9099;47.958;11.366;2023-02-11T02:03:52;-1.80;99.90
17948;DHT22;9099;47.958;11.366;2023-02-11T02:06:25;-1.80;99.90
17948;DHT22;9099;47.958;11.366;2023-02-11T02:08:58;-1.80;99.90
17948;DHT22;9099;47.958;11.366;2023-02-11T02:11:28;-1.90;99.90
17948;DHT22;9099;47.958;11.366;2023-02-11T02:13:55;-2.00;99.90
17948;DHT22;9099;47.958;11.366;2023-02-11T02:16:26;-1.90;99.90
17948;DHT22;9099;47.958;11.366;2023-02-11T02:19:08;-1.90;99.90
17948;DHT22;9099;47.958;11.366;2023-02-11T02:24:57;-1.90;99.90
17948;DHT22;9099;47.958;11.366;2023-02-11T02:27:38;-1.90;99.90
17948;DHT22;9099;47.958;11.366;2023-02-11T02:30:33;-1.90;99.90
17948;DHT22;9099;47.958;11.366;2023-02-11T02:33:23;-1.90;99.90
17948;DHT22;9099;47.958;11.366;2023-02-11T02:36:00;-1.90;99.90
17948;DHT22;9099;47.958;11.366;2023-02-11T02:38:32;-1.90;99.90
17948;DHT22;9099;47.958;11.366;2023-02-11T02:41:03;-1.80;99.90
17948;DHT22;9099;47.958;11.366;2023-02-11T02:43:33;-1.80;99.90
17948;DHT22;9099;47.958;11.366;2023-02-11T02:46:10;-1.80;99.90
17948;DHT22;9099;47.958;11.366;2023-02-11T02:48:38;-1.80;99.90
17948;DHT22;9099;47.958;11.366;2023-02-11T02:51:14;-1.80;99.90
17948;DHT22;9099;47.958;11.366;2023-02-11T02:53:57;-1.80;99.90
17948;DHT22;9099;47.958;11.366;2023-02-11T02:56:31;-1.80;99.90
17948;DHT22;9099;47.958;11.366;2023-02-11T02:59:13;-1.80;99.90
17948;DHT22;9099;47.958;11.366;2023-02-11T03:01:52;-1.70;99.90
17948;DHT22;9099;47.958;11.366;2023-02-11T03:04:28;-1.80;99.90
17948;DHT22;9099;47.958;11.366;2023-02-11T03:07:00;-1.80;99.90
17948;DHT22;9099;47.958;11.366;2023-02-11T03:09:32;-1.80;99.90
17948;DHT22;9099;47.958;11.366;2023-02-11T03:12:03;-1.80;99.90
17948;DHT22;9099;47.958;11.366;2023-02-11T03:14:32;-1.70;99.90
17948;DHT22;9099;47.958;11.366;2023-02-11T03:17:00;-1.70;99.90
17948;DHT22;9099;47.958;11.366;2023-02-11T03:19:34;-1.80;99.90
17948;DHT22;9099;47.958;11.366;2023-02-11T03:22:05;-1.70;99.90
17948;DHT22;9099;47.958;11.366;2023-02-11T03:24:35;-1.70;99.90
17948;DHT22;9099;47.958;11.366;2023-02-11T03:27:08;-1.70;99.90
17948;DHT22;9099;47.958;11.366;2023-02-11T03:29:39;-1.70;99.90
17948;DHT22;9099;47.958;11.366;2023-02-11T03:32:13;-1.70;99.90
17948;DHT22;9099;47.958;11.366;2023-02-11T03:34:45;-1.80;99.90
17948;DHT22;9099;47.958;11.366;2023-02-11T03:37:16;-1.90;99.90
17948;DHT22;9099;47.958;11.366;2023-02-11T03:39:46;-2.00;99.90
17948;DHT22;9099;47.958;11.366;2023-02-11T03:42:15;-2.00;99.90
17948;DHT22;9099;47.958;11.366;2023-02-11T03:44:47;-2.00;99.90
17948;DHT22;9099;47.958;11.366;2023-02-11T03:47:18;-2.00;99.90
17948;DHT22;9099;47.958;11.366;2023-02-11T03:49:48;-2.00;99.90
17948;DHT22;9099;47.958;11.366;2023-02-11T03:52:17;-2.00;99.90
17948;DHT22;9099;47.958;11.366;2023-02-11T03:54:46;-2.00;99.90
17948;DHT22;9099;47.958;11.366;2023-02-11T03:57:15;-2.00;99.90
17948;DHT22;9099;47.958;11.366;2023-02-11T03:59:52;-2.10;99.90
17948;DHT22;9099;47.958;11.366;2023-02-11T04:02:20;-2.10;99.90
17948;DHT22;9099;47.958;11.366;2023-02-11T04:04:49;-2.10;99.90
17948;DHT22;9099;47.958;11.366;2023-02-11T04:07:16;-2.10;99.90
17948;DHT22;9099;47.958;11.366;2023-02-11T04:09:43;-2.10;99.90
17948;DHT22;9099;47.958;11.366;2023-02-11T04:12:10;-2.10;99.90
17948;DHT22;9099;47.958;11.366;2023-02-11T04:14:37;-2.00;99.90
17948;DHT22;9099;47.958;11.366;2023-02-11T04:17:04;-2.10;99.90
17948;DHT22;9099;47.958;11.366;2023-02-11T04:19:31;-2.10;99.90
17948;DHT22;9099;47.958;11.366;2023-02-11T04:21:59;-2.20;99.90
17948;DHT22;9099;47.958;11.366;2023-02-11T04:24:26;-2.30;99.90
17948;DHT22;9099;47.958;11.366;2023-02-11T04:26:54;-2.30;99.90
17948;DHT22;9099;47.958;11.366;2023-02-11T04:29:21;-2.30;99.90
17948;DHT22;9099;47.958;11.366;2023-02-11T04:31:49;-2.30;99.90
17948;DHT22;9099;47.958;11.366;2023-02-11T04:34:17;-2.20;99.90
17948;DHT22;9099;47.958;11.366;2023-02-11T04:36:43;-2.30;99.90
17948;DHT22;9099;47.958;11.366;2023-02-11T04:39:12;-2.20;99.90
17948;DHT22;9099;47.958;11.366;2023-02-11T04:41:39;-2.20;99.90
17948;DHT22;9099;47.958;11.366;2023-02-11T04:44:05;-2.20;99.90
17948;DHT22;9099;47.958;11.366;2023-02-11T04:46:32;-2.20;99.90
17948;DHT22;9099;47.958;11.366;2023-02-11T04:48:59;-2.20;99.90
17948;DHT22;9099;47.958;11.366;2023-02-11T04:51:26;-2.30;99.90
17948;DHT22;9099;47.958;11.366;2023-02-11T04:53:53;-2.30;99.90
17948;DHT22;9099;47.958;11.366;2023-02-11T04:56:21;-2.40;99.90
17948;DHT22;9099;47.958;11.366;2023-02-11T04:58:48;-2.50;99.90
17948;DHT22;9099;47.958;11.366;2023-02-11T05:01:15;-2.40;99.90
17948;DHT22;9099;47.958;11.366;2023-02-11T05:03:42;-2.40;99.90
17948;DHT22;9099;47.958;11.366;2023-02-11T05:06:09;-2.30;99.90
17948;DHT22;9099;47.958;11.366;2023-02-11T05:08:37;-2.30;99.90
17948;DHT22;9099;47.958;11.366;2023-02-11T05:11:04;-2.30;99.90
17948;DHT22;9099;47.958;11.366;2023-02-11T05:13:32;-2.20;99.90
17948;DHT22;9099;47.958;11.366;2023-02-11T05:15:59;-2.20;99.90
17948;DHT22;9099;47.958;11.366;2023-02-11T05:18:26;-2.20;99.90
17948;DHT22;9099;47.958;11.366;2023-02-11T05:20:53;-2.20;99.90
17948;DHT22;9099;47.958;11.366;2023-02-11T05:23:20;-2.30;99.90
17948;DHT22;9099;47.958;11.366;2023-02-11T05:25:46;-2.20;99.90
17948;DHT22;9099;47.958;11.366;2023-02-11T05:28:13;-2.20;99.90
17948;DHT22;9099;47.958;11.366;2023-02-11T05:30:41;-2.30;99.90
17948;DHT22;9099;47.958;11.366;2023-02-11T05:33:08;-2.30;99.90
17948;DHT22;9099;47.958;11.366;2023-02-11T05:35:35;-2.20;99.90
17948;DHT22;9099;47.958;11.366;2023-02-11T05:38:02;-2.20;99.90
17948;DHT22;9099;47.958;11.366;2023-02-11T05:40:29;-2.10;99.90
17948;DHT22;9099;47.958;11.366;2023-02-11T05:42:56;-2.10;99.90
17948;DHT22;9099;47.958;11.366;2023-02-11T05:45:22;-2.00;99.90
17948;DHT22;9099;47.958;11.366;2023-02-11T05:47:51;-1.90;99.90
17948;DHT22;9099;47.958;11.366;2023-02-11T05:50:17;-1.90;99.90
17948;DHT22;9099;47.958;11.366;2023-02-11T05:52:44;-1.80;99.90
17948;DHT22;9099;47.958;11.366;2023-02-11T05:55:11;-1.70;99.90
17948;DHT22;9099;47.958;11.366;2023-02-11T05:57:38;-1.60;99.90
17948;DHT22;9099;47.958;11.366;2023-02-11T06:00:06;-1.60;99.90
17948;DHT22;9099;47.958;11.366;2023-02-11T06:02:33;-1.60;99.90
17948;DHT22;9099;47.958;11.366;2023-02-11T06:05:01;-1.50;99.90
17948;DHT22;9099;47.958;11.366;2023-02-11T06:07:28;-1.50;99.90
17948;DHT22;9099;47.958;11.366;2023-02-11T06:09:55;-1.40;99.90
17948;DHT22;9099;47.958;11.366;2023-02-11T06:12:22;-1.40;99.90
17948;DHT22;9099;47.958;11.366;2023-02-11T06:14:49;-1.30;99.90
17948;DHT22;9099;47.958;11.366;2023-02-11T06:17:15;-1.30;99.90
17948;DHT22;9099;47.958;11.366;2023-02-11T06:19:42;-1.30;99.90
17948;DHT22;9099;47.958;11.366;2023-02-11T06:22:11;-1.20;99.90
17948;DHT22;9099;47.958;11.366;2023-02-11T06:24:37;-1.20;99.90
17948;DHT22;9099;47.958;11.366;2023-02-11T06:27:05;-1.20;99.90
17948;DHT22;9099;47.958;11.366;2023-02-11T06:29:32;-1.20;99.90
17948;DHT22;9099;47.958;11.366;2023-02-11T06:31:58;-1.20;99.90
17948;DHT22;9099;47.958;11.366;2023-02-11T06:34:25;-1.20;99.90
17948;DHT22;9099;47.958;11.366;2023-02-11T06:36:53;-1.30;99.90
17948;DHT22;9099;47.958;11.366;2023-02-11T06:39:21;-1.30;99.90
17948;DHT22;9099;47.958;11.366;2023-02-11T06:41:48;-1.30;99.90
17948;DHT22;9099;47.958;11.366;2023-02-11T06:44:14;-1.30;99.90
17948;DHT22;9099;47.958;11.366;2023-02-11T06:46:41;-1.20;99.90
17948;DHT22;9099;47.958;11.366;2023-02-11T06:49:08;-1.10;99.90
17948;DHT22;9099;47.958;11.366;2023-02-11T06:51:35;-1.00;99.90
17948;DHT22;9099;47.958;11.366;2023-02-11T06:54:04;-0.90;99.90
17948;DHT22;9099;47.958;11.366;2023-02-11T06:56:33;-0.80;99.90
17948;DHT22;9099;47.958;11.366;2023-02-11T06:59:01;-0.80;99.90
17948;DHT22;9099;47.958;11.366;2023-02-11T07:01:28;-0.70;99.90
17948;DHT22;9099;47.958;11.366;2023-02-11T07:03:55;-0.60;99.90
17948;DHT22;9099;47.958;11.366;2023-02-11T07:06:23;-0.50;99.90
17948;DHT22;9099;47.958;11.366;2023-02-11T07:08:52;-0.30;99.90
17948;DHT22;9099;47.958;11.366;2023-02-11T07:11:21;-0.20;99.90
17948;DHT22;9099;47.958;11.366;2023-02-11T07:13:50;-0.10;99.90
17948;DHT22;9099;47.958;11.366;2023-02-11T07:16:18;-0.10;99.90
17948;DHT22;9099;47.958;11.366;2023-02-11T07:18:46;0.00;99.90
17948;DHT22;9099;47.958;11.366;2023-02-11T07:21:16;0.10;99.90
17948;DHT22;9099;47.958;11.366;2023-02-11T07:23:43;0.20;99.90
17948;DHT22;9099;47.958;11.366;2023-02-11T07:26:12;0.40;99.90
17948;DHT22;9099;47.958;11.366;2023-02-11T07:28:39;0.40;99.90
17948;DHT22;9099;47.958;11.366;2023-02-11T07:31:09;0.40;99.90
17948;DHT22;9099;47.958;11.366;2023-02-11T07:33:36;0.20;99.90
17948;DHT22;9099;47.958;11.366;2023-02-11T07:36:04;0.20;99.90
17948;DHT22;9099;47.958;11.366;2023-02-11T07:38:32;0.30;99.90
17948;DHT22;9099;47.958;11.366;2023-02-11T07:41:00;0.50;99.90
17948;DHT22;9099;47.958;11.366;2023-02-11T07:43:26;0.40;99.90
17948;DHT22;9099;47.958;11.366;2023-02-11T07:45:53;0.10;99.90
17948;DHT22;9099;47.958;11.366;2023-02-11T07:48:22;0.30;99.90
17948;DHT22;9099;47.958;11.366;2023-02-11T07:50:49;0.40;99.90
17948;DHT22;9099;47.958;11.366;2023-02-11T07:53:16;0.60;99.90
17948;DHT22;9099;47.958;11.366;2023-02-11T07:55:43;0.70;99.90
17948;DHT22;9099;47.958;11.366;2023-02-11T07:58:09;0.80;99.90
17948;DHT22;9099;47.958;11.366;2023-02-11T08:00:36;0.90;99.90
17948;DHT22;9099;47.958;11.366;2023-02-11T08:03:03;0.80;99.90
17948;DHT22;9099;47.958;11.366;2023-02-11T08:05:36;0.80;99.90
17948;DHT22;9099;47.958;11.366;2023-02-11T08:08:03;0.80;99.90
17948;DHT22;9099;47.958;11.366;2023-02-11T08:10:30;0.90;99.90
17948;DHT22;9099;47.958;11.366;2023-02-11T08:12:57;1.10;99.90
17948;DHT22;9099;47.958;11.366;2023-02-11T08:15:24;1.20;99.90
17948;DHT22;9099;47.958;11.366;2023-02-11T08:17:51;1.30;99.90
17948;DHT22;9099;47.958;11.366;2023-02-11T08:20:18;1.40;99.90
17948;DHT22;9099;47.958;11.366;2023-02-11T08:22:46;1.50;99.90
17948;DHT22;9099;47.958;11.366;2023-02-11T08:25:13;1.50;99.90
17948;DHT22;9099;47.958;11.366;2023-02-11T08:27:40;1.60;99.90
17948;DHT22;9099;47.958;11.366;2023-02-11T08:30:07;1.70;99.90
17948;DHT22;9099;47.958;11.366;2023-02-11T08:32:34;1.80;99.90
17948;DHT22;9099;47.958;11.366;2023-02-11T08:35:01;1.90;99.90
17948;DHT22;9099;47.958;11.366;2023-02-11T08:37:28;2.00;99.90
17948;DHT22;9099;47.958;11.366;2023-02-11T08:39:56;2.10;99.90
17948;DHT22;9099;47.958;11.366;2023-02-11T08:42:23;2.10;99.90
17948;DHT22;9099;47.958;11.366;2023-02-11T08:44:50;2.20;99.90
17948;DHT22;9099;47.958;11.366;2023-02-11T08:47:16;2.40;99.90
17948;DHT22;9099;47.958;11.366;2023-02-11T08:49:43;3.20;99.90
17948;DHT22;9099;47.958;11.366;2023-02-11T08:52:10;3.70;99.90
17948;DHT22;9099;47.958;11.366;2023-02-11T08:54:37;3.80;99.90
17948;DHT22;9099;47.958;11.366;2023-02-11T08:57:06;4.30;99.90
17948;DHT22;9099;47.958;11.366;2023-02-11T08:59:33;4.70;99.90
17948;DHT22;9099;47.958;11.366;2023-02-11T09:02:00;5.20;99.90
17948;DHT22;9099;47.958;11.366;2023-02-11T09:04:26;5.50;99.90
17948;DHT22;9099;47.958;11.366;2023-02-11T09:06:53;6.00;99.90
17948;DHT22;9099;47.958;11.366;2023-02-11T09:09:20;6.40;99.90
17948;DHT22;9099;47.958;11.366;2023-02-11T09:11:47;7.60;99.90
17948;DHT22;9099;47.958;11.366;2023-02-11T09:14:19;7.60;99.90
17948;DHT22;9099;47.958;11.366;2023-02-11T09:16:47;9.30;99.90
17948;DHT22;9099;47.958;11.366;2023-02-11T09:19:14;10.60;99.90
17948;DHT22;9099;47.958;11.366;2023-02-11T09:21:40;10.30;99.90
17948;DHT22;9099;47.958;11.366;2023-02-11T09:24:07;9.50;99.90
17948;DHT22;9099;47.958;11.366;2023-02-11T09:26:35;9.10;99.90
17948;DHT22;9099;47.958;11.366;2023-02-11T09:29:03;8.40;99.90
17948;DHT22;9099;47.958;11.366;2023-02-11T09:31:32;8.00;99.90
17948;DHT22;9099;47.958;11.366;2023-02-11T09:34:01;7.50;99.90
17948;DHT22;9099;47.958;11.366;2023-02-11T09:36:31;7.10;99.90
17948;DHT22;9099;47.958;11.366;2023-02-11T09:39:00;6.70;99.90
17948;DHT22;9099;47.958;11.366;2023-02-11T09:41:53;6.30;99.90
17948;DHT22;9099;47.958;11.366;2023-02-11T09:44:27;6.10;99.90
17948;DHT22;9099;47.958;11.366;2023-02-11T09:46:58;6.20;99.90
17948;DHT22;9099;47.958;11.366;2023-02-11T09:49:33;6.10;99.90
17948;DHT22;9099;47.958;11.366;2023-02-11T09:52:05;6.00;99.90
17948;DHT22;9099;47.958;11.366;2023-02-11T09:54:38;5.80;99.90
17948;DHT22;9099;47.958;11.366;2023-02-11T09:57:09;5.80;99.90
17948;DHT22;9099;47.958;11.366;2023-02-11T09:59:36;5.80;99.90
17948;DHT22;9099;47.958;11.366;2023-02-11T10:02:12;5.70;99.90
17948;DHT22;9099;47.958;11.366;2023-02-11T10:04:54;5.80;99.90
17948;DHT22;9099;47.958;11.366;2023-02-11T10:07:33;5.80;99.90
17948;DHT22;9099;47.958;11.366;2023-02-11T10:10:12;6.10;99.90
17948;DHT22;9099;47.958;11.366;2023-02-11T10:12:53;6.20;99.90
17948;DHT22;9099;47.958;11.366;2023-02-11T10:15:31;6.10;99.90
17948;DHT22;9099;47.958;11.366;2023-02-11T10:18:12;6.50;99.90
17948;DHT22;9099;47.958;11.366;2023-02-11T10:20:47;6.90;99.90
17948;DHT22;9099;47.958;11.366;2023-02-11T10:23:16;7.40;99.90
17948;DHT22;9099;47.958;11.366;2023-02-11T10:25:48;7.50;99.90
17948;DHT22;9099;47.958;11.366;2023-02-11T10:28:19;7.50;99.90
17948;DHT22;9099;47.958;11.366;2023-02-11T10:30:54;7.50;99.90
17948;DHT22;9099;47.958;11.366;2023-02-11T10:33:26;7.40;99.90
17948;DHT22;9099;47.958;11.366;2023-02-11T10:35:53;7.60;99.90
17948;DHT22;9099;47.958;11.366;2023-02-11T10:38:20;7.50;99.90
17948;DHT22;9099;47.958;11.366;2023-02-11T10:40:47;7.50;99.90
17948;DHT22;9099;47.958;11.366;2023-02-11T10:43:16;7.40;99.90
17948;DHT22;9099;47.958;11.366;2023-02-11T10:45:45;7.40;99.90
17948;DHT22;9099;47.958;11.366;2023-02-11T10:48:37;7.30;99.90
17948;DHT22;9099;47.958;11.366;2023-02-11T10:51:17;7.20;99.90
17948;DHT22;9099;47.958;11.366;2023-02-11T10:53:44;6.90;99.90
17948;DHT22;9099;47.958;11.366;2023-02-11T10:56:18;6.90;99.90
17948;DHT22;9099;47.958;11.366;2023-02-11T10:58:54;7.10;99.90
17948;DHT22;9099;47.958;11.366;2023-02-11T11:01:35;7.00;99.90
17948;DHT22;9099;47.958;11.366;2023-02-11T11:04:04;7.10;99.90
17948;DHT22;9099;47.958;11.366;2023-02-11T11:06:32;7.20;99.90
17948;DHT22;9099;47.958;11.366;2023-02-11T11:09:00;7.30;99.90
17948;DHT22;9099;47.958;11.366;2023-02-11T11:11:29;7.30;99.90
17948;DHT22;9099;47.958;11.366;2023-02-11T11:13:58;7.40;99.90
17948;DHT22;9099;47.958;11.366;2023-02-11T11:16:26;7.50;99.90
17948;DHT22;9099;47.958;11.366;2023-02-11T11:19:19;7.50;99.90
17948;DHT22;9099;47.958;11.366;2023-02-11T11:21:48;7.50;99.90
17948;DHT22;9099;47.958;11.366;2023-02-11T11:24:18;7.60;99.90
17948;DHT22;9099;47.958;11.366;2023-02-11T11:26:48;7.70;99.90
17948;DHT22;9099;47.958;11.366;2023-02-11T11:29:17;7.70;99.90
17948;DHT22;9099;47.958;11.366;2023-02-11T11:31:47;7.50;99.90
17948;DHT22;9099;47.958;11.366;2023-02-11T11:34:22;7.50;99.90
17948;DHT22;9099;47.958;11.366;2023-02-11T11:36:50;7.60;99.90
17948;DHT22;9099;47.958;11.366;2023-02-11T11:39:21;7.60;99.90
17948;DHT22;9099;47.958;11.366;2023-02-11T11:41:54;7.70;99.90
17948;DHT22;9099;47.958;11.366;2023-02-11T11:44:30;7.70;99.90
17948;DHT22;9099;47.958;11.366;2023-02-11T11:50:26;7.90;99.90
17948;DHT22;9099;47.958;11.366;2023-02-11T11:52:58;7.90;99.90
17948;DHT22;9099;47.958;11.366;2023-02-11T11:55:30;8.10;99.90
17948;DHT22;9099;47.958;11.366;2023-02-11T11:57:59;8.40;99.90
17948;DHT22;9099;47.958;11.366;2023-02-11T12:00:31;8.50;99.90
17948;DHT22;9099;47.958;11.366;2023-02-11T12:06:23;8.80;99.90
17948;DHT22;9099;47.958;11.366;2023-02-11T12:09:01;9.00;99.90
17948;DHT22;9099;47.958;11.366;2023-02-11T12:11:43;9.00;99.90
17948;DHT22;9099;47.958;11.366;2023-02-11T12:14:24;9.00;99.90
17948;DHT22;9099;47.958;11.366;2023-02-11T12:17:00;9.10;99.90
17948;DHT22;9099;47.958;11.366;2023-02-11T12:20:03;9.20;99.90
17948;DHT22;9099;47.958;11.366;2023-02-11T12:22:43;9.20;99.90
17948;DHT22;9099;47.958;11.366;2023-02-11T12:25:26;9.20;99.90
17948;DHT22;9099;47.958;11.366;2023-02-11T12:28:00;9.10;99.90
17948;DHT22;9099;47.958;11.366;2023-02-11T12:30:42;9.10;99.90
17948;DHT22;9099;47.958;11.366;2023-02-11T12:33:17;9.10;99.90
17948;DHT22;9099;47.958;11.366;2023-02-11T12:35:53;9.20;99.90
17948;DHT22;9099;47.958;11.366;2023-02-11T12:41:39;9.60;99.90
17948;DHT22;9099;47.958;11.366;2023-02-11T12:44:38;9.80;99.90
17948;DHT22;9099;47.958;11.366;2023-02-11T12:47:13;9.90;99.90
17948;DHT22;9099;47.958;11.366;2023-02-11T12:50:03;9.90;99.90
17948;DHT22;9099;47.958;11.366;2023-02-11T12:52:41;9.80;99.90
17948;DHT22;9099;47.958;11.366;2023-02-11T12:55:18;9.70;99.90
17948;DHT22;9099;47.958;11.366;2023-02-11T12:57:49;9.70;99.90
17948;DHT22;9099;47.958;11.366;2023-02-11T13:00:19;9.70;99.90
17948;DHT22;9099;47.958;11.366;2023-02-11T13:02:53;9.60;99.90
17948;DHT22;9099;47.958;11.366;2023-02-11T13:05:26;9.70;99.90
17948;DHT22;9099;47.958;11.366;2023-02-11T13:07:59;9.70;99.90
17948;DHT22;9099;47.958;11.366;2023-02-11T13:10:32;10.30;99.90
17948;DHT22;9099;47.958;11.366;2023-02-11T13:13:01;10.60;99.80
17948;DHT22;9099;47.958;11.366;2023-02-11T13:15:46;10.80;99.40
17948;DHT22;9099;47.958;11.366;2023-02-11T13:18:25;11.10;99.10
17948;DHT22;9099;47.958;11.366;2023-02-11T13:21:00;11.30;98.80
17948;DHT22;9099;47.958;11.366;2023-02-11T13:23:36;11.30;99.90
17948;DHT22;9099;47.958;11.366;2023-02-11T13:26:11;11.50;98.70
17948;DHT22;9099;47.958;11.366;2023-02-11T13:28:47;11.70;99.30
17948;DHT22;9099;47.958;11.366;2023-02-11T13:31:15;11.70;99.80
17948;DHT22;9099;47.958;11.366;2023-02-11T13:33:45;12.00;98.30
17948;DHT22;9099;47.958;11.366;2023-02-11T13:36:19;12.30;97.80
17948;DHT22;9099;47.958;11.366;2023-02-11T13:39:01;12.40;97.40
17948;DHT22;9099;47.958;11.366;2023-02-11T13:41:36;12.50;96.90
17948;DHT22;9099;47.958;11.366;2023-02-11T13:44:21;12.40;97.20
17948;DHT22;9099;47.958;11.366;2023-02-11T13:46:54;12.30;97.90
17948;DHT22;9099;47.958;11.366;2023-02-11T13:49:28;12.20;96.80
17948;DHT22;9099;47.958;11.366;2023-02-11T13:51:56;11.90;97.80
17948;DHT22;9099;47.958;11.366;2023-02-11T13:54:27;11.80;95.70
17948;DHT22;9099;47.958;11.366;2023-02-11T13:57:24;12.10;96.60
17948;DHT22;9099;47.958;11.366;2023-02-11T13:59:53;12.60;95.00
17948;DHT22;9099;47.958;11.366;2023-02-11T14:02:25;12.70;96.00
17948;DHT22;9099;47.958;11.366;2023-02-11T14:05:37;12.70;94.90
17948;DHT22;9099;47.958;11.366;2023-02-11T14:08:23;12.80;95.80
17948;DHT22;9099;47.958;11.366;2023-02-11T14:14:15;13.00;94.70
17948;DHT22;9099;47.958;11.366;2023-02-11T14:19:49;13.10;94.70
17948;DHT22;9099;47.958;11.366;2023-02-11T14:22:19;12.60;94.00
17948;DHT22;9099;47.958;11.366;2023-02-11T14:24:53;12.30;94.00
17948;DHT22;9099;47.958;11.366;2023-02-11T14:27:34;12.10;93.70
17948;DHT22;9099;47.958;11.366;2023-02-11T14:33:30;11.50;93.50
17948;DHT22;9099;47.958;11.366;2023-02-11T14:36:07;11.20;93.70
17948;DHT22;9099;47.958;11.366;2023-02-11T14:38:51;11.10;93.70
17948;DHT22;9099;47.958;11.366;2023-02-11T14:41:24;10.90;94.00
17948;DHT22;9099;47.958;11.366;2023-02-11T14:43:54;10.70;94.00
17948;DHT22;9099;47.958;11.366;2023-02-11T14:46:24;10.60;94.50
17948;DHT22;9099;47.958;11.366;2023-02-11T14:48:57;10.60;95.00
17948;DHT22;9099;47.958;11.366;2023-02-11T14:51:26;10.40;94.90
17948;DHT22;9099;47.958;11.366;2023-02-11T14:53:57;10.40;94.70
17948;DHT22;9099;47.958;11.366;2023-02-11T14:56:27;10.30;94.70
17948;DHT22;9099;47.958;11.366;2023-02-11T14:58:57;10.20;95.50
17948;DHT22;9099;47.958;11.366;2023-02-11T15:01:29;10.20;96.30
17948;DHT22;9099;47.958;11.366;2023-02-11T15:03:56;10.20;96.50
17948;DHT22;9099;47.958;11.366;2023-02-11T15:06:29;10.10;96.00
17948;DHT22;9099;47.958;11.366;2023-02-11T15:08:59;10.10;96.20
17948;DHT22;9099;47.958;11.366;2023-02-11T15:11:28;10.10;96.30
17948;DHT22;9099;47.958;11.366;2023-02-11T15:14:04;10.10;96.10
17948;DHT22;9099;47.958;11.366;2023-02-11T15:16:34;10.00;96.60
17948;DHT22;9099;47.958;11.366;2023-02-11T15:19:06;10.00;96.90
17948;DHT22;9099;47.958;11.366;2023-02-11T15:21:44;10.00;96.90
17948;DHT22;9099;47.958;11.366;2023-02-11T15:24:21;10.00;97.00
17948;DHT22;9099;47.958;11.366;2023-02-11T15:26:58;10.00;97.20
17948;DHT22;9099;47.958;11.366;2023-02-11T15:29:25;10.00;96.60
17948;DHT22;9099;47.958;11.366;2023-02-11T15:32:11;9.90;97.10
17948;DHT22;9099;47.958;11.366;2023-02-11T15:34:39;9.90;97.40
17948;DHT22;9099;47.958;11.366;2023-02-11T15:37:09;9.80;96.80
17948;DHT22;9099;47.958;11.366;2023-02-11T15:39:39;9.70;96.50
17948;DHT22;9099;47.958;11.366;2023-02-11T15:42:17;9.70;97.30
17948;DHT22;9099;47.958;11.366;2023-02-11T15:44:45;9.70;96.70
17948;DHT22;9099;47.958;11.366;2023-02-11T15:47:18;9.70;96.40
17948;DHT22;9099;47.958;11.366;2023-02-11T15:49:46;9.70;96.50
17948;DHT22;9099;47.958;11.366;2023-02-11T15:52:20;9.60;97.40
17948;DHT22;9099;47.958;11.366;2023-02-11T15:54:48;9.60;98.10
17948;DHT22;9099;47.958;11.366;2023-02-11T15:57:15;9.50;97.60
17948;DHT22;9099;47.958;11.366;2023-02-11T15:59:46;9.40;97.30
17948;DHT22;9099;47.958;11.366;2023-02-11T16:02:19;9.40;97.00
17948;DHT22;9099;47.958;11.366;2023-02-11T16:04:51;9.40;96.60
17948;DHT22;9099;47.958;11.366;2023-02-11T16:07:43;9.40;97.00
17948;DHT22;9099;47.958;11.366;2023-02-11T16:10:19;9.30;97.60
17948;DHT22;9099;47.958;11.366;2023-02-11T16:12:54;9.10;99.00
17948;DHT22;9099;47.958;11.366;2023-02-11T16:18:32;8.90;99.80
17948;DHT22;9099;47.958;11.366;2023-02-11T16:21:00;8.80;99.70
17948;DHT22;9099;47.958;11.366;2023-02-11T16:23:29;8.80;98.70
17948;DHT22;9099;47.958;11.366;2023-02-11T16:26:00;8.70;99.50
17948;DHT22;9099;47.958;11.366;2023-02-11T16:28:30;8.70;99.60
17948;DHT22;9099;47.958;11.366;2023-02-11T16:30:57;8.60;99.60
17948;DHT22;9099;47.958;11.366;2023-02-11T16:33:25;8.60;99.40